• Join FlightAware (Why Join?)
  • Login
  • US Flag 
03:44AM EDT


 

Airport Tracker/Info


-or-


 

Live Flight TrackerFlight Track Log ✈ SWA1231 ✈ 12-Apr-2013 ✈ KPIT - KTPA

Flight Track Log - Related Links

Times and Time Zones

All times are in EDT time to prevent confusion due to time zone crossing. See the SWA1231 flight status page for this flight to view local times or setup timezone preferences in your user account.

Time Position Orientation Groundspeed Altitude Reporting Facility
EDT Latitude Longitude Course Direction KTS MPH feet Rate Location/Type
06:09AM 40.4872 -80.1944 95° East 175 201 2,300  Level FAA TRACON SMA TRACON (SMA)
06:09AM 40.4858 -80.1725 95° East 194 223 2,600 1,380 Climbing FAA TRACON SMA TRACON (SMA)
06:09AM 40.4769 -80.1522 120° Southeast 209 241 3,200 1,920 Climbing FAA TRACON SMA TRACON (SMA)
06:10AM 40.4556 -80.1444 165° South 214 246 3,900 2,100 Climbing FAA TRACON SMA TRACON (SMA)
06:10AM 40.4361 -80.1408 172° South 238 274 4,600 2,100 Climbing FAA TRACON SMA TRACON (SMA)
06:10AM 40.4150 -80.1408 180° South 247 284 5,300 2,340 Climbing FAA TRACON SMA TRACON (SMA)
06:11AM 40.3939 -80.1456 190° South 254 292 6,200 3,180 Climbing FAA TRACON SMA TRACON (SMA)
06:11AM 40.3700 -80.1469 183° South 260 299 7,400 3,420 Climbing FAA TRACON SMA TRACON (SMA)
06:11AM 40.3444 -80.1514 188° South 255 293 8,500 3,000 Climbing FAA TRACON SMA TRACON (SMA)
06:12AM 40.3222 -80.1539 185° South 258 297 9,400 2,820 Climbing FAA TRACON SMA TRACON (SMA)
06:12AM 40.2942 -80.1572 185° South 261 300 10,400 1,800 Climbing FAA TRACON SMA TRACON (SMA)
06:12AM 40.2692 -80.1606 186° South 295 339 10,600 720 Climbing FAA TRACON SMA TRACON (SMA)
06:13AM 40.2372 -80.1614 181° South 325 374 10,900 1,740 Climbing FAA TRACON SMA TRACON (SMA)
06:13AM 40.2058 -80.1675 188° South 338 389 11,800 2,460 Climbing FAA TRACON SMA TRACON (SMA)
06:13AM 40.1769 -80.1708 185° South 341 392 12,500 2,220 Climbing FAA TRACON SMA TRACON (SMA)
06:14AM 40.1475 -80.1744 185° South 343 395 13,300 2,820 Climbing FAA TRACON SMA TRACON (SMA)
06:14AM 40.1103 -80.1789 185° South 346 398 14,400 2,820 Climbing FAA TRACON SMA TRACON (SMA)
06:14AM 40.0806 -80.1819 184° South 346 398 15,200 2,160 Climbing FAA TRACON SMA TRACON (SMA)
06:15AM 40.0508 -80.1850 184° South 348 400 15,900 2,280 Climbing FAA TRACON SMA TRACON (SMA)
06:15AM 40.0128 -80.1897 185° South 353 406 16,700 2,100 Climbing FAA TRACON SMA TRACON (SMA)
06:15AM 39.9814 -80.1936 185° South 360 414 17,300 2,220 Climbing FAA TRACON SMA TRACON (SMA)
06:16AM 39.9506 -80.1947 182° South 365 420 18,200 2,820 Climbing FAA TRACON SMA TRACON (SMA)
06:16AM 39.9097 -80.2019 188° South 373 429 19,200 2,580 Climbing FAA TRACON SMA TRACON (SMA)
06:16AM 39.8775 -80.2058 185° South 374 430 20,000 2,280 Climbing FAA TRACON SMA TRACON (SMA)
06:17AM 39.8483 -80.2050 179° South 373 429 20,700 2,520 Climbing FAA TRACON SMA TRACON (SMA)
06:17AM 39.8064 -80.2142 190° South 371 427 21,700 2,520 Climbing FAA TRACON SMA TRACON (SMA)
06:17AM 39.7753 -80.2175 185° South 368 423 22,400 1,800 Climbing FAA TRACON SMA TRACON (SMA)
06:18AM 39.7392 -80.2144 176° South 367 422 22,900 1,440 Climbing FAA TRACON SMA TRACON (SMA)
06:18AM 39.7042 -80.2256 194° South 370 426 23,400 1,200 Climbing FAA TRACON SMA TRACON (SMA)
06:18AM 39.6764 -80.2219 174° South 373 429 23,700 1,020 Climbing FAA TRACON SMA TRACON (SMA)
06:19AM 39.6392 -80.2333 193° South 380 437 24,100 1,500 Climbing FAA TRACON SMA TRACON (SMA)
06:19AM 39.5978 -80.2381 185° South 385 443 24,700 1,620 Climbing FAA TRACON SMA TRACON (SMA)
06:19AM 39.5644 -80.2422 186° South 388 447 25,200 1,140 Climbing FAA TRACON SMA TRACON (SMA)
06:20AM 39.5478 -80.2442 185° South 388 447 25,500 420 Climbing FAA TRACON SMA TRACON (SMA)
06:20AM 39.5478 -80.2442 131° Southeast 388 447 25,500 2,940 Level FAA TRACON SMA TRACON (SMA)
06:21AM 39.4506 -80.2494 182° South 383 441 28,100 2,460 Climbing Washington Center
06:22AM 39.3525 -80.2567 183° South 377 434 29,400 1,320 Climbing Washington Center
06:23AM 39.2517 -80.2717 187° South 367 422 30,800 1,320 Climbing Washington Center
06:24AM 39.1569 -80.2975 192° South 362 417 32,100 1,260 Climbing Washington Center
06:25AM 39.0600 -80.3261 193° South 357 411 33,400 1,200 Climbing Washington Center
06:26AM 38.9669 -80.3547 193° South 357 411 34,500 960 Climbing Washington Center
06:27AM 38.8722 -80.3806 192° South 357 411 35,400 720 Climbing Washington Center
06:28AM 38.7814 -80.4094 194° South 357 411 36,000 300 Climbing Washington Center
06:29AM 38.6883 -80.4406 195° South 357 411 36,000  Level Washington Center
06:30AM 38.5933 -80.4689 193° South 357 411 36,000  Level Washington Center
06:31AM 38.4919 -80.4992 193° South 350 403 36,000  Level Washington Center
06:32AM 38.3992 -80.5275 193° South 350 403 36,000  Level Washington Center
06:33AM 38.3044 -80.5453 188° South 345 397 36,000  Level Washington Center
06:34AM 38.2144 -80.5578 186° South 351 404 36,000  Level Washington Center
06:35AM 38.1178 -80.5722 187° South 357 411 36,000  Level Washington Center
06:36AM 38.0214 -80.5869 187° South 357 411 36,000  Level Washington Center
06:37AM 37.9206 -80.5986 185° South 357 411 36,000  Level Washington Center
06:38AM 37.8133 -80.6181 188° South 357 411 36,000  Level Washington Center
06:39AM 37.7128 -80.6294 185° South 357 411 36,000  Level Washington Center
06:41AM 37.5400 -80.6525 186° South 371 427 36,000  Level Atlanta Center
06:42AM 37.4361 -80.6675 187° South 371 427 36,000  Level Atlanta Center
06:43AM 37.3281 -80.6825 186° South 366 421 36,000  Level Atlanta Center
06:44AM 37.2242 -80.6950 185° South 371 427 36,000  Level Atlanta Center
06:45AM 37.1206 -80.7122 188° South 371 427 36,000  Level Atlanta Center
06:46AM 37.0186 -80.7217 184° South 371 427 36,000  Level Atlanta Center
06:47AM 36.9125 -80.7339 185° South 371 427 36,000  Level Atlanta Center
06:48AM 36.8169 -80.7458 186° South 382 440 36,000  Level Atlanta Center
06:49AM 36.7025 -80.7556 184° South 382 440 36,000  Level Atlanta Center
06:50AM 36.6047 -80.7622 183° South 387 445 36,000  Level Atlanta Center
06:51AM 36.4989 -80.7769 186° South 387 445 36,000  Level Atlanta Center
06:52AM 36.3928 -80.7889 185° South 387 445 36,000  Level Atlanta Center
06:53AM 36.2867 -80.8011 185° South 387 445 36,000  Level Atlanta Center
06:54AM 36.1806 -80.8106 184° South 387 445 36,000  Level Atlanta Center
06:55AM 36.0725 -80.8250 186° South 387 445 36,000  Level Atlanta Center
06:56AM 35.9558 -80.8347 184° South 387 445 36,000  Level Atlanta Center
06:57AM 35.8500 -80.8467 185° South 387 445 36,000  Level Atlanta Center
06:58AM 35.7417 -80.8586 185° South 387 445 36,000  Level Atlanta Center
06:59AM 35.6336 -80.8678 184° South 387 445 36,000  Level Atlanta Center
07:00AM 35.5253 -80.8797 185° South 387 445 36,000  Level Atlanta Center
07:01AM 35.4297 -80.8911 186° South 387 445 36,000  Level Atlanta Center
07:02AM 35.3214 -80.9028 185° South 387 445 36,000  Level Atlanta Center
07:03AM 35.2133 -80.9144 185° South 392 451 36,000  Level Atlanta Center
07:04AM 35.1050 -80.9286 186° South 392 451 36,000  Level Atlanta Center
07:05AM 34.8936 -80.9489 184° South 399 459 36,000  Level Jacksonville Center
07:06AM 34.7875 -80.9589 184° South 399 459 36,000  Level Jacksonville Center
07:07AM 34.6731 -80.9789 188° South 405 466 36,000  Level Jacksonville Center
07:08AM 34.5647 -80.9839 182° South 399 459 36,000  Level Jacksonville Center
07:09AM 34.4564 -80.9964 185° South 400 460 36,000  Level Jacksonville Center
07:10AM 34.3442 -81.0164 188° South 405 466 36,000  Level Jacksonville Center
07:11AM 34.2508 -81.0586 201° Southwest 391 450 36,000  Level Jacksonville Center
07:12AM 34.1556 -81.1008 200° South 391 450 36,000  Level Jacksonville Center
07:13AM 34.0539 -81.1431 199° South 391 450 36,000  Level Jacksonville Center
07:14AM 33.9500 -81.1853 199° South 391 450 36,000  Level Jacksonville Center
07:15AM 33.8442 -81.2247 197° South 391 450 36,000  Level Jacksonville Center
07:16AM 33.7322 -81.2767 201° Southwest 397 457 36,000  Level Jacksonville Center
07:17AM 33.6283 -81.3186 199° South 397 457 36,000  Level Jacksonville Center
07:18AM 33.5453 -81.3525 199° South 397 457 36,000  Level Jacksonville Center
07:19AM 33.4331 -81.3967 198° South 397 457 36,000  Level Jacksonville Center
07:20AM 33.3292 -81.4383 199° South 397 457 36,000  Level Jacksonville Center
07:21AM 33.2131 -81.4897 200° South 402 463 36,000  Level Jacksonville Center
07:22AM 33.1069 -81.5311 198° South 402 463 36,000  Level Jacksonville Center
07:23AM 33.0050 -81.5722 199° South 402 463 36,000  Level Jacksonville Center
07:24AM 32.9033 -81.6133 199° South 402 463 36,000  Level Jacksonville Center
07:25AM 32.7994 -81.6569 199° South 402 463 36,000  Level Jacksonville Center
07:26AM 32.7078 -81.6903 197° South 397 457 36,000  Level Jacksonville Center
07:27AM 32.5975 -81.7336 198° South 387 445 36,000  Level Jacksonville Center
07:28AM 32.4872 -81.7622 192° South 388 447 36,000  Level Jacksonville Center
07:29AM 32.3808 -81.7806 188° South 398 458 36,000  Level Jacksonville Center
07:30AM 32.2831 -81.8014 190° South 403 464 36,000  Level Jacksonville Center
07:31AM 32.1622 -81.8300 191° South 403 464 36,000  Level Jacksonville Center
07:32AM 32.0475 -81.8508 189° South 411 473 36,000  Level Jacksonville Center
07:33AM 31.9494 -81.8717 190° South 411 473 36,000  Level Jacksonville Center
07:34AM 31.8286 -81.8972 190° South 408 470 36,000  Level Jacksonville Center
07:35AM 31.7286 -81.9181 190° South 408 470 36,000  Level Jacksonville Center
07:36AM 31.6075 -81.9436 190° South 403 464 36,000  Level Jacksonville Center
07:37AM 31.4972 -81.9667 190° South 410 472 36,000  Level Jacksonville Center
07:38AM 31.3992 -81.9872 190° South 410 472 36,000  Level Jacksonville Center
07:39AM 31.2803 -82.0150 191° South 410 472 36,000  Level Jacksonville Center
07:40AM 31.1697 -82.0378 190° South 410 472 36,000  Level Jacksonville Center
07:41AM 31.0614 -82.0631 191° South 410 472 36,000  Level Jacksonville Center
07:42AM 30.9550 -82.0833 189° South 404 465 36,000  Level Jacksonville Center
07:43AM 30.8467 -82.1036 189° South 404 465 36,000  Level Jacksonville Center
07:44AM 30.7486 -82.1239 190° South 399 459 36,000  Level Jacksonville Center
07:45AM 30.6422 -82.1464 190° South 399 459 36,000  Level Jacksonville Center
07:46AM 30.5358 -82.1617 187° South 389 448 36,000  Level Jacksonville Center
07:47AM 30.4317 -82.1842 191° South 389 448 36,000  Level Jacksonville Center
07:48AM 30.3253 -82.2042 189° South 389 448 36,000  Level Jacksonville Center
07:49AM 30.2208 -82.2292 192° South 389 448 36,000  Level Jacksonville Center
07:50AM 30.1144 -82.2492 189° South 389 448 36,000 -60 Level Jacksonville Center
07:51AM 30.0103 -82.2761 193° South 389 448 35,900 -1,200 Descending Jacksonville Center
07:52AM 29.9061 -82.2958 189° South 389 448 33,700 -2,400 Descending Jacksonville Center
07:53AM 29.7997 -82.3181 190° South 389 448 31,100 -2,400 Descending Jacksonville Center
07:54AM 29.6953 -82.3331 187° South 389 448 29,000 -2,100 Descending Jacksonville Center
07:55AM 29.5953 -82.3553 191° South 384 442 27,000 -1,020 Descending Jacksonville Center
07:56AM 29.4928 -82.3486 177° South 372 428 27,000 -2,700 Level Jacksonville Center
07:57AM 29.3822 -82.3325 173° South 380 437 21,600 -3,840 Descending Jacksonville Center
07:58AM 29.2736 -82.3211 175° South 387 445 19,400 -2,100 Descending Jacksonville Center
07:59AM 29.1714 -82.3100 175° South 387 445 17,500 -1,260 Descending Jacksonville Center
08:00AM 29.0731 -82.2986 174° South 375 432 16,900 -480 Descending Jacksonville Center
08:01AM 28.9769 -82.2872 174° South 358 412 16,600 -900 Descending Jacksonville Center
08:02AM 28.8747 -82.2761 175° South 348 400 15,100 -1,260 Descending Jacksonville Center
08:04AM 28.7000 -82.2500 173° South 318 366 13,000 -780 Descending Tampa TRACON
08:05AM 28.6167 -82.2500 180° South 308 354 12,800 -960 Descending Tampa TRACON
08:06AM 28.5167 -82.2500 180° South 297 342 11,000 -1,740 Descending Tampa TRACON
08:07AM 28.4333 -82.2500 180° South 295 339 9,200 -1,440 Descending Tampa TRACON
08:09AM 28.3667 -82.2833 204° Southwest 269 310 8,100 -1,080 Descending Tampa TRACON
08:10AM 28.3167 -82.3500 230° Southwest 257 296 7,000 -1,320 Descending Tampa TRACON
08:11AM 28.2667 -82.4167 230° Southwest 254 292 5,400 -1,500 Descending Tampa TRACON
08:12AM 28.2333 -82.4833 240° Southwest 246 283 3,800 -1,200 Descending Tampa TRACON
08:13AM 28.1833 -82.5167 210° Southwest 236 272 3,000 -540 Descending Tampa TRACON
08:14AM 28.1333 -82.5167 180° South 171 197 2,800 -480 Descending Tampa TRACON
08:15AM 28.0833 -82.5333 196° South 126 145 2,000 -720 Descending Tampa TRACON
08:16AM 28.0500 -82.5333 180° South 121 139 1,400 -720 Descending Tampa TRACON